Flight Track Log - Related Links

Times and Time Zones

All times are in EDT time to prevent confusion due to time zone crossing. See the N600AJ flight status page for this flight to view local times or setup timezone preferences in your user account.

Time Position Orientation Groundspeed Altitude Reporting Facility
EDT Latitude Longitude Course Direction KTS MPH feet Rate Location/Type
Tue 02:44:39 PM 26.7875 -80.3867 North 400 460 10,000  Level Miami Center
Tue 02:45:00 PM 32.3615 -78.1925 North  Level FlightAware
Tue 02:45:39 PM 26.8711 -80.4731 317° Northwest 383 441 13,300  Level Miami Center
Tue 02:46:00 PM 32.4768 -78.1732 North  Level FlightAware
Tue 02:46:39 PM 26.9725 -80.5042 345° North 366 421 16,300  Level Miami Center
Tue 02:47:00 PM 32.5920 -78.1538 North  Level FlightAware
Tue 02:47:39 PM 27.0719 -80.5447 340° North 368 423 18,600  Level Miami Center
Tue 02:48:00 PM 32.7073 -78.1344 North  Level FlightAware
Tue 02:48:39 PM 27.1733 -80.5758 345° North 373 429 20,500  Level Miami Center
Tue 02:49:00 PM 32.8225 -78.1150 North  Level FlightAware
Tue 02:49:39 PM 27.2839 -80.5794 358° North 379 436 22,300  Level Miami Center
Tue 02:50:00 PM 32.9378 -78.0955 North  Level FlightAware
Tue 02:50:39 PM 27.3983 -80.5925 354° North 397 457 23,800  Level Miami Center
Tue 02:51:39 PM 27.5103 -80.6289 344° North 404 465 25,000 1,300 Climbing Miami Center
Tue 02:52:39 PM 27.6219 -80.6700 342° North 415 478 26,400 1,350 Climbing Miami Center
Tue 02:53:39 PM 27.7375 -80.7139 341° North 420 483 27,700 1,100 Climbing Miami Center
Tue 02:54:39 PM 27.8533 -80.7578 341° North 420 483 28,600 1,050 Climbing Miami Center
Tue 02:55:39 PM 27.9731 -80.8017 342° North 431 496 29,800 1,150 Climbing Miami Center
Tue 02:56:39 PM 28.0928 -80.8531 339° North 446 513 30,900 1,200 Climbing Miami Center
Tue 02:57:39 PM 28.2083 -80.9019 340° North 446 513 32,200 1,450 Climbing Miami Center
Tue 02:58:39 PM 28.3258 -80.9533 339° North 446 513 33,800 1,450 Climbing Miami Center
Tue 02:59:39 PM 28.4414 -81.0000 340° North 440 506 35,100 1,250 Climbing Miami Center
Tue 03:00:39 PM 28.5544 -81.0489 339° North 440 506 36,300 1,211 Climbing Miami Center
Tue 03:01:28 PM 28.6361 -81.0878 337° Northwest 445 512 37,300 1,321 Climbing Jacksonville Center
Tue 03:02:28 PM 28.7514 -81.1308 342° North 445 512 38,700 857 Climbing Jacksonville Center
Tue 03:03:27 PM 28.8769 -81.1522 352° North 439 505 39,000 151 Climbing Jacksonville Center
Tue 03:04:27 PM 29.0106 -81.1547 359° North 458 527 39,000  Level Jacksonville Center
Tue 03:05:27 PM 29.1461 -81.1403 North 467 537 39,000  Level Jacksonville Center
Tue 03:06:27 PM 29.2706 -81.0953 18° North 475 547 39,000  Level Jacksonville Center
Tue 03:07:28 PM 29.3953 -81.0572 15° North 463 533 39,000  Level Jacksonville Center
Tue 03:08:28 PM 29.5178 -81.0192 15° North 463 533 39,000  Level Jacksonville Center
Tue 03:09:27 PM 29.6444 -80.9667 20° North 457 526 39,000  Level Jacksonville Center
Tue 03:10:28 PM 29.7708 -80.9114 21° North 469 540 39,000 -50 Level Jacksonville Center
Tue 03:11:27 PM 29.9003 -80.9086 North 459 528 38,900  Descending Jacksonville Center
Tue 03:12:27 PM 30.0300 -80.9253 354° North 460 529 39,000 50 Climbing Jacksonville Center
Tue 03:13:27 PM 30.1658 -80.9369 356° North 467 537 39,000 -50 Level Jacksonville Center
Tue 03:14:28 PM 30.2975 -80.9486 356° North 473 544 38,900  Descending Jacksonville Center
Tue 03:15:27 PM 30.4294 -80.9653 354° North 473 544 39,000 700 Climbing Jacksonville Center
Tue 03:16:28 PM 30.5633 -80.9819 354° North 473 544 40,300 992 Climbing Jacksonville Center
Tue 03:17:28 PM 30.6931 -81.0011 353° North 473 544 41,000 350 Climbing Jacksonville Center
Tue 03:18:28 PM 30.8231 -81.0394 346° North 473 544 41,000  Level Jacksonville Center
Tue 03:19:28 PM 30.9508 -81.0661 350° North 473 544 41,000  Level Jacksonville Center
Tue 03:20:28 PM 31.0864 -81.0658 360° North 473 544 41,000  Level Jacksonville Center
Tue 03:21:28 PM 31.2133 -81.0342 12° North 460 529 41,000  Level Jacksonville Center
Tue 03:22:28 PM 31.3547 -80.9950 13° North 465 535 41,000  Level Jacksonville Center
Tue 03:23:28 PM 31.4733 -80.9731 North 470 541 41,000  Level Jacksonville Center
Tue 03:24:28 PM 31.6169 -80.9408 11° North 470 541 41,000  Level Jacksonville Center
Tue 03:25:28 PM 31.7503 -80.9161 North 470 541 41,000  Level Jacksonville Center
Tue 03:26:28 PM 31.8692 -80.9111 North 475 547 41,000  Level Jacksonville Center
Tue 03:27:28 PM 32.0169 -80.8858 North 480 552 41,000  Level Jacksonville Center
Tue 03:28:28 PM 32.1356 -80.8636 North 480 552 41,000  Level Jacksonville Center
Tue 03:29:28 PM 32.2836 -80.8431 North 480 552 41,000  Level Jacksonville Center
Tue 03:30:27 PM 32.4003 -80.8233 North 480 552 41,000  Level Jacksonville Center
Tue 03:31:28 PM 32.5250 -80.7958 11° North 469 540 41,000  Level Jacksonville Center
Tue 03:32:28 PM 32.6539 -80.7731 North 464 534 41,000  Level Jacksonville Center
Tue 03:33:28 PM 32.7831 -80.7553 North 464 534 41,000  Level Jacksonville Center
Tue 03:34:28 PM 32.9100 -80.7225 12° North 464 534 41,000  Level Jacksonville Center
Tue 03:35:28 PM 33.0342 -80.6725 19° North 469 540 41,000  Level Jacksonville Center
Tue 03:36:28 PM 33.1628 -80.6294 16° North 469 540 41,000  Level Jacksonville Center
Tue 03:37:28 PM 33.2872 -80.5842 17° North 474 545 41,000  Level Jacksonville Center
Tue 03:38:28 PM 33.4261 -80.5358 16° North 474 545 41,000  Level Jacksonville Center
Tue 03:39:28 PM 33.5572 -80.5022 12° North 474 545 41,000  Level Jacksonville Center
Tue 03:40:28 PM 33.6881 -80.4689 12° North 474 545 41,000  Level Jacksonville Center
Tue 03:41:28 PM 33.8186 -80.4328 13° North 474 545 41,000  Level Jacksonville Center
Tue 03:42:28 PM 33.9494 -80.3992 12° North 474 545 41,000  Level Jacksonville Center
Tue 03:43:28 PM 34.0803 -80.3628 13° North 474 545 41,000  Level Jacksonville Center
Tue 03:44:28 PM 34.2089 -80.3289 12° North 474 545 41,000  Level Jacksonville Center
Tue 03:46:52 PM 34.5225 -80.2469 12° North 479 551 41,000  Level Atlanta Center
Tue 03:47:52 PM 34.6569 -80.2081 13° North 479 551 41,000  Level Atlanta Center
Tue 03:48:52 PM 34.7875 -80.1742 12° North 479 551 41,000  Level Atlanta Center
Tue 03:49:52 PM 34.9178 -80.1403 12° North 484 557 41,000  Level Atlanta Center
Tue 03:50:52 PM 35.0522 -80.1036 13° North 484 557 41,000  Level Atlanta Center
Tue 03:51:52 PM 35.1844 -80.0669 13° North 496 571 41,000  Level Atlanta Center
Tue 03:52:52 PM 35.3211 -80.0322 12° North 496 571 41,000  Level Atlanta Center
Tue 03:53:52 PM 35.4556 -79.9925 14° North 491 565 41,000  Level Atlanta Center
Tue 03:54:52 PM 35.5836 -79.9581 12° North 485 558 41,000  Level Atlanta Center
Tue 03:55:52 PM 35.7161 -79.9233 12° North 485 558 41,000  Level Atlanta Center
Tue 03:57:33 PM 35.9314 -79.8683 12° North 520 598 41,000  Level Washington Center
Tue 03:58:33 PM 36.0622 -79.8317 13° North 496 571 41,000  Level Washington Center
Tue 03:59:34 PM 36.1969 -79.7978 11° North 485 558 41,000  Level Washington Center
Tue 04:00:35 PM 36.3319 -79.7586 13° North 485 558 41,000  Level Washington Center
Tue 04:01:33 PM 36.4753 -79.7119 15° North 485 558 41,000  Level Washington Center
Tue 04:02:33 PM 36.5953 -79.6794 12° North 485 558 41,000  Level Washington Center
Tue 04:03:33 PM 36.7322 -79.6428 12° North 492 566 41,000  Level Washington Center
Tue 04:04:33 PM 36.8669 -79.6056 12° North 492 566 41,000  Level Washington Center
Tue 04:05:33 PM 37.0186 -79.5614 13° North 492 566 41,000  Level Washington Center
Tue 04:06:34 PM 37.1514 -79.5242 13° North 492 566 41,000  Level Washington Center
Tue 04:07:35 PM 37.2883 -79.4842 13° North 492 566 41,000  Level Washington Center
Tue 04:08:33 PM 37.4231 -79.4439 13° North 487 560 41,000  Level Washington Center
Tue 04:09:34 PM 37.5703 -79.4094 11° North 522 601 41,000  Level Washington Center
Tue 04:10:35 PM 37.7072 -79.3664 14° North 515 593 41,000  Level Washington Center
Tue 04:11:35 PM 37.8461 -79.3261 13° North 510 587 41,000  Level Washington Center
Tue 04:12:33 PM 37.9850 -79.2881 12° North 500 575 41,000  Level Washington Center
Tue 04:13:33 PM 38.1089 -79.2547 12° North 500 575 41,000  Level Washington Center
Tue 04:14:34 PM 38.2458 -79.2139 13° North 500 575 41,000  Level Washington Center
Tue 04:15:35 PM 38.3847 -79.1731 13° North 500 575 41,000  Level Washington Center
Tue 04:16:35 PM 38.5256 -79.1319 13° North 506 582 41,000  Level Washington Center
Tue 04:17:35 PM 38.6603 -79.0906 13° North 501 577 41,000  Level Washington Center
Tue 04:18:34 PM 38.8011 -79.0492 13° North 506 582 41,000  Level Washington Center
Tue 04:19:35 PM 38.9378 -79.0078 13° North 506 582 41,000  Level Washington Center
Tue 04:20:33 PM 39.0767 -78.9661 13° North 511 588 41,000  Level Washington Center
Tue 04:22:07 PM 39.3125 -78.8983 13° North 510 587 41,000  Level Cleveland Center
Tue 04:23:07 PM 39.4517 -78.8544 14° North 510 587 41,000  Level Cleveland Center
Tue 04:24:07 PM 39.5928 -78.8133 13° North 510 587 41,000  Level Cleveland Center
Tue 04:25:07 PM 39.7339 -78.7689 14° North 510 587 41,000  Level Cleveland Center
Tue 04:26:07 PM 39.8664 -78.7250 14° North 498 573 41,000  Level Cleveland Center
Tue 04:27:07 PM 40.0033 -78.6831 13° North 498 573 41,000 -750 Level Cleveland Center
Tue 04:28:07 PM 40.1464 -78.6383 13° North 511 588 39,500 -1,750 Descending Cleveland Center
Tue 04:29:07 PM 40.2853 -78.5936 14° North 511 588 37,500 -2,100 Descending Cleveland Center
Tue 04:30:07 PM 40.4097 -78.5544 13° North 511 588 35,300 -2,150 Descending Cleveland Center
Tue 04:31:07 PM 40.5444 -78.5092 14° North 506 582 33,200 -1,150 Descending Cleveland Center
Tue 04:32:07 PM 40.6875 -78.4664 13° North 506 582 33,000 -850 Descending Cleveland Center
Tue 04:33:07 PM 40.8214 -78.3797 26° Northeast 522 601 31,500 -1,700 Descending Cleveland Center
Tue 04:34:07 PM 40.9717 -78.2786 27° Northeast 536 617 29,600 -1,650 Descending Cleveland Center
Tue 04:35:07 PM 41.0847 -78.1975 28° Northeast 536 617 28,200 -800 Descending Cleveland Center
Tue 04:36:07 PM 41.2078 -78.1100 28° Northeast 516 594 28,000 -100 Descending Cleveland Center
Tue 04:37:07 PM 41.3386 -77.9889 35° Northeast 507 583 28,000 -50 Level Cleveland Center
Tue 04:38:07 PM 41.4528 -77.8792 36° Northeast 507 583 27,900 -400 Descending Cleveland Center
Tue 04:39:07 PM 41.5669 -77.7744 34° Northeast 507 583 27,200 -650 Descending Cleveland Center
Tue 04:40:07 PM 41.6972 -77.7214 17° North 481 554 26,600 -650 Descending Cleveland Center
Tue 04:41:07 PM 41.8358 -77.6875 10° North 488 562 25,900 -1,300 Descending Cleveland Center
Tue 04:42:07 PM 41.9567 -77.6764 North 495 570 24,000 -2,200 Descending Cleveland Center
Tue 04:43:07 PM 42.0817 -77.6792 359° North 466 536 21,500 -2,400 Descending Cleveland Center
Tue 04:44:07 PM 42.1942 -77.6767 North 434 499 19,200 -2,200 Descending Cleveland Center
Tue 04:45:07 PM 42.3019 -77.6464 12° North 403 464 17,100 -2,299 Descending Cleveland Center
Tue 04:45:54 PM 42.3869 -77.6258 10° North 376 433 15,100 -2,779 Descending Cleveland Center
Tue 04:46:42 PM 42.4767 -77.6272 359° North 368 423 12,700 -2,422 Descending Cleveland Center
Tue 04:47:43 PM 42.5739 -77.5972 13° North 358 412 10,700 -1,721 Descending Cleveland Center
Tue 04:48:44 PM 42.6644 -77.5592 17° North 317 365 9,200 -1,488 Descending Cleveland Center
Tue 04:49:44 PM 42.7406 -77.5186 21° North 293 337 7,700 -1,785 Descending Cleveland Center
Tue 04:50:45 PM 42.8242 -77.5231 358° North 278 320 5,600 -2,016 Descending Cleveland Center
Tue 04:51:46 PM 42.9036 -77.5333 355° North 281 323 3,600 -1,537 Descending Cleveland Center
Tue 04:52:46 PM 42.9669 -77.5642 340° North 250 288 2,500 -596 Descending Cleveland Center
Tue 04:54:07 PM 43.0028 -77.6592 297° West 211 243 2,200 -248 Descending Cleveland Center
Tue 04:54:47 PM 43.0203 -77.7008 300° West 187 215 2,000 -416 Descending Cleveland Center
Tue 04:55:48 PM 43.0625 -77.7189 343° North 139 160 1,500 -590 Descending Cleveland Center
Tue 04:56:49 PM 43.0953 -77.7003 23° Northeast 142 163 800 -689 Descending Cleveland Center
Tue 04:58:00 PM 43.1167 -77.6667 North  Level FlightAware
Tue 05:05:00 PM 43.1191 -77.6719 North  Level Estimated

Login

Don't have an account? Register now (free) for customized features, flight alerts, and more!